sensor_id;sensor_type;location;lat;lon;timestamp;P1;durP1;ratioP1;P2;durP2;ratioP2
62707;SDS011;48769;51.624;5.886;2023-05-07T00:00:31;12.73;;;10.98;;
62707;SDS011;48769;51.624;5.886;2023-05-07T00:02:58;13.10;;;11.15;;
62707;SDS011;48769;51.624;5.886;2023-05-07T00:05:24;16.65;;;12.38;;
62707;SDS011;48769;51.624;5.886;2023-05-07T00:07:49;16.73;;;11.77;;
62707;SDS011;48769;51.624;5.886;2023-05-07T00:10:15;13.73;;;11.20;;
62707;SDS011;48769;51.624;5.886;2023-05-07T00:12:40;15.07;;;12.50;;
62707;SDS011;48769;51.624;5.886;2023-05-07T00:15:06;13.18;;;11.77;;
62707;SDS011;48769;51.624;5.886;2023-05-07T00:17:32;12.90;;;11.15;;
62707;SDS011;48769;51.624;5.886;2023-05-07T00:19:58;13.63;;;12.25;;
62707;SDS011;48769;51.624;5.886;2023-05-07T00:22:23;15.40;;;12.40;;
62707;SDS011;48769;51.624;5.886;2023-05-07T00:24:48;14.02;;;12.02;;
62707;SDS011;48769;51.624;5.886;2023-05-07T00:27:14;15.65;;;13.05;;
62707;SDS011;48769;51.624;5.886;2023-05-07T00:29:39;15.77;;;12.63;;
62707;SDS011;48769;51.624;5.886;2023-05-07T00:32:05;15.32;;;13.27;;
62707;SDS011;48769;51.624;5.886;2023-05-07T00:34:30;15.43;;;12.23;;
62707;SDS011;48769;51.624;5.886;2023-05-07T00:36:55;15.05;;;13.23;;
62707;SDS011;48769;51.624;5.886;2023-05-07T00:39:21;17.98;;;12.93;;
62707;SDS011;48769;51.624;5.886;2023-05-07T00:41:46;16.27;;;13.68;;
62707;SDS011;48769;51.624;5.886;2023-05-07T00:44:12;15.70;;;13.27;;
62707;SDS011;48769;51.624;5.886;2023-05-07T00:46:37;15.57;;;13.98;;
62707;SDS011;48769;51.624;5.886;2023-05-07T00:49:03;14.82;;;13.23;;
62707;SDS011;48769;51.624;5.886;2023-05-07T00:51:28;16.98;;;14.95;;
62707;SDS011;48769;51.624;5.886;2023-05-07T00:53:55;16.45;;;14.02;;
62707;SDS011;48769;51.624;5.886;2023-05-07T00:56:21;18.08;;;15.00;;
62707;SDS011;48769;51.624;5.886;2023-05-07T00:58:48;21.17;;;16.52;;
62707;SDS011;48769;51.624;5.886;2023-05-07T01:01:14;21.05;;;16.67;;
62707;SDS011;48769;51.624;5.886;2023-05-07T01:03:41;22.95;;;16.92;;
62707;SDS011;48769;51.624;5.886;2023-05-07T01:06:07;20.40;;;18.05;;
62707;SDS011;48769;51.624;5.886;2023-05-07T01:08:33;19.27;;;17.02;;
62707;SDS011;48769;51.624;5.886;2023-05-07T01:11:00;18.20;;;16.33;;
62707;SDS011;48769;51.624;5.886;2023-05-07T01:13:26;18.75;;;16.75;;
62707;SDS011;48769;51.624;5.886;2023-05-07T01:15:52;17.30;;;15.50;;
62707;SDS011;48769;51.624;5.886;2023-05-07T01:18:18;21.42;;;17.88;;
62707;SDS011;48769;51.624;5.886;2023-05-07T01:20:43;19.15;;;17.15;;
62707;SDS011;48769;51.624;5.886;2023-05-07T01:23:08;19.63;;;16.50;;
62707;SDS011;48769;51.624;5.886;2023-05-07T01:25:36;19.10;;;16.33;;
62707;SDS011;48769;51.624;5.886;2023-05-07T01:28:01;21.10;;;16.10;;
62707;SDS011;48769;51.624;5.886;2023-05-07T01:30:27;22.27;;;17.90;;
62707;SDS011;48769;51.624;5.886;2023-05-07T01:33:01;21.25;;;17.90;;
62707;SDS011;48769;51.624;5.886;2023-05-07T01:35:32;20.05;;;16.75;;
62707;SDS011;48769;51.624;5.886;2023-05-07T01:38:01;21.13;;;18.92;;
62707;SDS011;48769;51.624;5.886;2023-05-07T01:40:29;22.30;;;19.55;;
62707;SDS011;48769;51.624;5.886;2023-05-07T01:42:55;22.80;;;19.08;;
62707;SDS011;48769;51.624;5.886;2023-05-07T01:45:20;22.67;;;19.80;;
62707;SDS011;48769;51.624;5.886;2023-05-07T01:47:46;22.52;;;19.83;;
62707;SDS011;48769;51.624;5.886;2023-05-07T01:50:12;24.52;;;20.25;;
62707;SDS011;48769;51.624;5.886;2023-05-07T01:52:38;24.63;;;21.92;;
62707;SDS011;48769;51.624;5.886;2023-05-07T01:55:03;23.90;;;21.13;;
62707;SDS011;48769;51.624;5.886;2023-05-07T01:57:29;24.70;;;20.42;;
62707;SDS011;48769;51.624;5.886;2023-05-07T01:59:55;26.85;;;21.75;;
62707;SDS011;48769;51.624;5.886;2023-05-07T02:02:20;25.85;;;22.05;;
62707;SDS011;48769;51.624;5.886;2023-05-07T02:04:45;25.95;;;21.33;;
62707;SDS011;48769;51.624;5.886;2023-05-07T02:07:11;24.73;;;21.52;;
62707;SDS011;48769;51.624;5.886;2023-05-07T02:09:36;28.48;;;22.20;;
62707;SDS011;48769;51.624;5.886;2023-05-07T02:12:01;28.55;;;22.95;;
62707;SDS011;48769;51.624;5.886;2023-05-07T02:14:27;27.23;;;22.08;;
62707;SDS011;48769;51.624;5.886;2023-05-07T02:16:52;26.77;;;22.98;;
62707;SDS011;48769;51.624;5.886;2023-05-07T02:19:17;26.60;;;23.83;;
62707;SDS011;48769;51.624;5.886;2023-05-07T02:21:45;29.13;;;25.85;;
62707;SDS011;48769;51.624;5.886;2023-05-07T02:24:11;29.67;;;26.00;;
62707;SDS011;48769;51.624;5.886;2023-05-07T02:26:36;31.42;;;27.40;;
62707;SDS011;48769;51.624;5.886;2023-05-07T02:29:01;33.05;;;27.45;;
62707;SDS011;48769;51.624;5.886;2023-05-07T02:31:27;29.52;;;26.33;;
62707;SDS011;48769;51.624;5.886;2023-05-07T02:33:52;32.88;;;27.88;;
62707;SDS011;48769;51.624;5.886;2023-05-07T02:36:18;30.65;;;27.40;;
62707;SDS011;48769;51.624;5.886;2023-05-07T02:38:43;34.20;;;28.10;;
62707;SDS011;48769;51.624;5.886;2023-05-07T02:41:08;31.48;;;27.73;;
62707;SDS011;48769;51.624;5.886;2023-05-07T02:43:34;30.80;;;27.42;;
62707;SDS011;48769;51.624;5.886;2023-05-07T02:46:03;32.00;;;28.60;;
62707;SDS011;48769;51.624;5.886;2023-05-07T02:48:29;32.20;;;28.83;;
62707;SDS011;48769;51.624;5.886;2023-05-07T02:50:54;33.50;;;29.63;;
62707;SDS011;48769;51.624;5.886;2023-05-07T02:53:20;32.92;;;29.35;;
62707;SDS011;48769;51.624;5.886;2023-05-07T02:55:45;34.53;;;30.58;;
62707;SDS011;48769;51.624;5.886;2023-05-07T02:58:10;33.70;;;29.95;;
62707;SDS011;48769;51.624;5.886;2023-05-07T03:00:36;34.05;;;30.42;;
62707;SDS011;48769;51.624;5.886;2023-05-07T03:03:01;33.28;;;29.75;;
62707;SDS011;48769;51.624;5.886;2023-05-07T03:05:26;38.85;;;31.83;;
62707;SDS011;48769;51.624;5.886;2023-05-07T03:07:51;40.17;;;33.25;;
62707;SDS011;48769;51.624;5.886;2023-05-07T03:10:17;38.28;;;32.60;;
62707;SDS011;48769;51.624;5.886;2023-05-07T03:12:43;39.20;;;32.00;;
62707;SDS011;48769;51.624;5.886;2023-05-07T03:15:08;41.17;;;33.72;;
62707;SDS011;48769;51.624;5.886;2023-05-07T03:17:35;39.33;;;33.90;;
62707;SDS011;48769;51.624;5.886;2023-05-07T03:20:00;39.47;;;35.17;;
62707;SDS011;48769;51.624;5.886;2023-05-07T03:22:26;39.65;;;34.10;;
62707;SDS011;48769;51.624;5.886;2023-05-07T03:24:51;42.90;;;35.00;;
62707;SDS011;48769;51.624;5.886;2023-05-07T03:27:16;44.88;;;36.72;;
62707;SDS011;48769;51.624;5.886;2023-05-07T03:29:42;43.45;;;36.28;;
62707;SDS011;48769;51.624;5.886;2023-05-07T03:32:07;43.33;;;36.97;;
62707;SDS011;48769;51.624;5.886;2023-05-07T03:34:32;47.20;;;38.63;;
62707;SDS011;48769;51.624;5.886;2023-05-07T03:36:58;44.42;;;38.08;;
62707;SDS011;48769;51.624;5.886;2023-05-07T03:39:23;40.25;;;36.08;;
62707;SDS011;48769;51.624;5.886;2023-05-07T03:41:48;42.90;;;38.40;;
62707;SDS011;48769;51.624;5.886;2023-05-07T03:44:14;46.75;;;39.70;;
62707;SDS011;48769;51.624;5.886;2023-05-07T03:46:39;46.45;;;39.42;;
62707;SDS011;48769;51.624;5.886;2023-05-07T03:49:04;44.03;;;39.10;;
62707;SDS011;48769;51.624;5.886;2023-05-07T03:51:30;41.92;;;37.47;;
62707;SDS011;48769;51.624;5.886;2023-05-07T03:53:55;47.85;;;39.05;;
62707;SDS011;48769;51.624;5.886;2023-05-07T03:56:22;45.78;;;40.83;;
62707;SDS011;48769;51.624;5.886;2023-05-07T03:58:48;42.60;;;37.97;;
62707;SDS011;48769;51.624;5.886;2023-05-07T04:01:13;46.80;;;39.40;;
62707;SDS011;48769;51.624;5.886;2023-05-07T04:03:39;45.95;;;40.58;;
62707;SDS011;48769;51.624;5.886;2023-05-07T04:06:04;43.58;;;38.97;;
62707;SDS011;48769;51.624;5.886;2023-05-07T04:08:30;45.50;;;38.08;;
62707;SDS011;48769;51.624;5.886;2023-05-07T04:10:56;45.53;;;39.55;;
62707;SDS011;48769;51.624;5.886;2023-05-07T04:13:22;43.47;;;37.58;;
62707;SDS011;48769;51.624;5.886;2023-05-07T04:15:47;42.92;;;38.25;;
62707;SDS011;48769;51.624;5.886;2023-05-07T04:18:14;40.78;;;36.10;;
62707;SDS011;48769;51.624;5.886;2023-05-07T04:20:39;43.60;;;38.78;;
62707;SDS011;48769;51.624;5.886;2023-05-07T04:23:05;47.17;;;40.17;;
62707;SDS011;48769;51.624;5.886;2023-05-07T04:25:30;43.75;;;39.17;;
62707;SDS011;48769;51.624;5.886;2023-05-07T04:27:56;46.35;;;39.17;;
62707;SDS011;48769;51.624;5.886;2023-05-07T04:30:21;48.88;;;40.92;;
62707;SDS011;48769;51.624;5.886;2023-05-07T04:32:46;45.78;;;40.55;;
62707;SDS011;48769;51.624;5.886;2023-05-07T04:35:13;44.70;;;39.70;;
62707;SDS011;48769;51.624;5.886;2023-05-07T04:37:38;45.92;;;39.20;;
62707;SDS011;48769;51.624;5.886;2023-05-07T04:40:04;47.38;;;38.95;;
62707;SDS011;48769;51.624;5.886;2023-05-07T04:42:29;59.00;;;40.42;;
62707;SDS011;48769;51.624;5.886;2023-05-07T04:44:56;44.38;;;39.65;;
62707;SDS011;48769;51.624;5.886;2023-05-07T04:47:21;48.17;;;39.85;;
62707;SDS011;48769;51.624;5.886;2023-05-07T04:49:46;46.33;;;39.55;;
62707;SDS011;48769;51.624;5.886;2023-05-07T04:52:12;47.30;;;41.20;;
62707;SDS011;48769;51.624;5.886;2023-05-07T04:54:37;53.03;;;41.95;;
62707;SDS011;48769;51.624;5.886;2023-05-07T04:57:05;52.75;;;42.95;;
62707;SDS011;48769;51.624;5.886;2023-05-07T04:59:31;52.60;;;42.22;;
62707;SDS011;48769;51.624;5.886;2023-05-07T05:01:57;49.47;;;42.97;;
62707;SDS011;48769;51.624;5.886;2023-05-07T05:04:22;49.03;;;42.13;;
62707;SDS011;48769;51.624;5.886;2023-05-07T05:06:48;50.25;;;42.58;;
62707;SDS011;48769;51.624;5.886;2023-05-07T05:09:13;51.45;;;42.75;;
62707;SDS011;48769;51.624;5.886;2023-05-07T05:11:39;49.28;;;42.75;;
62707;SDS011;48769;51.624;5.886;2023-05-07T05:14:04;49.72;;;43.42;;
62707;SDS011;48769;51.624;5.886;2023-05-07T05:16:30;48.22;;;42.45;;
62707;SDS011;48769;51.624;5.886;2023-05-07T05:18:55;52.08;;;42.75;;
62707;SDS011;48769;51.624;5.886;2023-05-07T05:21:21;47.70;;;42.55;;
62707;SDS011;48769;51.624;5.886;2023-05-07T05:23:49;47.58;;;40.70;;
62707;SDS011;48769;51.624;5.886;2023-05-07T05:26:14;49.90;;;41.25;;
62707;SDS011;48769;51.624;5.886;2023-05-07T05:28:40;46.25;;;41.33;;
62707;SDS011;48769;51.624;5.886;2023-05-07T05:31:05;50.00;;;41.47;;
62707;SDS011;48769;51.624;5.886;2023-05-07T05:33:30;48.53;;;41.45;;
62707;SDS011;48769;51.624;5.886;2023-05-07T05:35:56;46.08;;;39.90;;
62707;SDS011;48769;51.624;5.886;2023-05-07T05:38:21;54.10;;;41.80;;
62707;SDS011;48769;51.624;5.886;2023-05-07T05:40:47;46.70;;;41.78;;
62707;SDS011;48769;51.624;5.886;2023-05-07T05:43:13;47.97;;;40.65;;
62707;SDS011;48769;51.624;5.886;2023-05-07T05:45:39;47.90;;;41.15;;
62707;SDS011;48769;51.624;5.886;2023-05-07T05:48:04;45.65;;;40.67;;
62707;SDS011;48769;51.624;5.886;2023-05-07T05:50:29;47.80;;;41.53;;
62707;SDS011;48769;51.624;5.886;2023-05-07T05:52:55;46.28;;;41.42;;
62707;SDS011;48769;51.624;5.886;2023-05-07T05:55:21;48.30;;;42.05;;
62707;SDS011;48769;51.624;5.886;2023-05-07T05:57:46;49.05;;;41.80;;
62707;SDS011;48769;51.624;5.886;2023-05-07T06:00:12;45.35;;;39.78;;
62707;SDS011;48769;51.624;5.886;2023-05-07T06:02:38;48.83;;;41.33;;
62707;SDS011;48769;51.624;5.886;2023-05-07T06:05:03;47.53;;;41.17;;
62707;SDS011;48769;51.624;5.886;2023-05-07T06:07:29;44.78;;;39.40;;
62707;SDS011;48769;51.624;5.886;2023-05-07T06:09:55;45.28;;;40.05;;
62707;SDS011;48769;51.624;5.886;2023-05-07T06:12:20;47.17;;;40.15;;
62707;SDS011;48769;51.624;5.886;2023-05-07T06:14:46;46.58;;;41.53;;
62707;SDS011;48769;51.624;5.886;2023-05-07T06:17:11;45.53;;;40.92;;
62707;SDS011;48769;51.624;5.886;2023-05-07T06:19:36;52.40;;;42.47;;
62707;SDS011;48769;51.624;5.886;2023-05-07T06:22:01;43.22;;;38.63;;
62707;SDS011;48769;51.624;5.886;2023-05-07T06:24:27;41.50;;;37.08;;
62707;SDS011;48769;51.624;5.886;2023-05-07T06:26:53;41.85;;;36.15;;
62707;SDS011;48769;51.624;5.886;2023-05-07T06:29:18;44.55;;;35.95;;
62707;SDS011;48769;51.624;5.886;2023-05-07T06:31:43;39.58;;;35.30;;
62707;SDS011;48769;51.624;5.886;2023-05-07T06:34:09;40.58;;;34.88;;
62707;SDS011;48769;51.624;5.886;2023-05-07T06:36:35;39.80;;;35.35;;
62707;SDS011;48769;51.624;5.886;2023-05-07T06:39:00;39.03;;;35.00;;
62707;SDS011;48769;51.624;5.886;2023-05-07T06:41:26;41.05;;;36.42;;
62707;SDS011;48769;51.624;5.886;2023-05-07T06:43:54;38.60;;;34.50;;
62707;SDS011;48769;51.624;5.886;2023-05-07T06:46:19;36.17;;;32.33;;
62707;SDS011;48769;51.624;5.886;2023-05-07T06:48:45;39.50;;;35.25;;
62707;SDS011;48769;51.624;5.886;2023-05-07T06:51:10;40.17;;;35.05;;
62707;SDS011;48769;51.624;5.886;2023-05-07T06:53:35;40.60;;;34.80;;
62707;SDS011;48769;51.624;5.886;2023-05-07T06:56:01;38.25;;;32.80;;
62707;SDS011;48769;51.624;5.886;2023-05-07T06:58:26;36.67;;;32.17;;
62707;SDS011;48769;51.624;5.886;2023-05-07T07:00:51;36.83;;;31.17;;
62707;SDS011;48769;51.624;5.886;2023-05-07T07:03:17;33.25;;;29.80;;
62707;SDS011;48769;51.624;5.886;2023-05-07T07:05:42;35.20;;;29.92;;
62707;SDS011;48769;51.624;5.886;2023-05-07T07:08:07;35.88;;;30.98;;
62707;SDS011;48769;51.624;5.886;2023-05-07T07:10:33;35.03;;;31.13;;
62707;SDS011;48769;51.624;5.886;2023-05-07T07:12:58;32.28;;;28.83;;
62707;SDS011;48769;51.624;5.886;2023-05-07T07:15:23;35.70;;;31.48;;
62707;SDS011;48769;51.624;5.886;2023-05-07T07:17:50;32.38;;;29.13;;
62707;SDS011;48769;51.624;5.886;2023-05-07T07:20:16;32.30;;;28.80;;
62707;SDS011;48769;51.624;5.886;2023-05-07T07:22:41;35.45;;;30.52;;
62707;SDS011;48769;51.624;5.886;2023-05-07T07:25:07;36.65;;;28.52;;
62707;SDS011;48769;51.624;5.886;2023-05-07T07:27:32;35.97;;;29.55;;
62707;SDS011;48769;51.624;5.886;2023-05-07T07:29:58;30.98;;;27.63;;
62707;SDS011;48769;51.624;5.886;2023-05-07T07:32:23;33.88;;;27.02;;
62707;SDS011;48769;51.624;5.886;2023-05-07T07:34:48;32.47;;;27.58;;
62707;SDS011;48769;51.624;5.886;2023-05-07T07:37:14;31.98;;;26.83;;
62707;SDS011;48769;51.624;5.886;2023-05-07T07:39:39;29.60;;;26.45;;
62707;SDS011;48769;51.624;5.886;2023-05-07T07:42:06;29.20;;;26.05;;
62707;SDS011;48769;51.624;5.886;2023-05-07T07:44:31;31.17;;;27.30;;
62707;SDS011;48769;51.624;5.886;2023-05-07T07:46:56;31.88;;;25.40;;
62707;SDS011;48769;51.624;5.886;2023-05-07T07:49:21;34.53;;;26.25;;
62707;SDS011;48769;51.624;5.886;2023-05-07T07:51:47;31.30;;;26.15;;
62707;SDS011;48769;51.624;5.886;2023-05-07T07:54:12;30.10;;;26.92;;
62707;SDS011;48769;51.624;5.886;2023-05-07T07:56:38;29.73;;;26.52;;
62707;SDS011;48769;51.624;5.886;2023-05-07T07:59:03;28.73;;;24.65;;
62707;SDS011;48769;51.624;5.886;2023-05-07T08:01:31;30.33;;;26.83;;
62707;SDS011;48769;51.624;5.886;2023-05-07T08:03:57;29.20;;;25.35;;
62707;SDS011;48769;51.624;5.886;2023-05-07T08:06:25;28.80;;;25.85;;
62707;SDS011;48769;51.624;5.886;2023-05-07T08:08:51;28.92;;;25.88;;
62707;SDS011;48769;51.624;5.886;2023-05-07T08:11:17;27.40;;;24.38;;
62707;SDS011;48769;51.624;5.886;2023-05-07T08:13:42;26.55;;;23.85;;
62707;SDS011;48769;51.624;5.886;2023-05-07T08:16:08;28.08;;;24.67;;
62707;SDS011;48769;51.624;5.886;2023-05-07T08:18:33;27.23;;;24.27;;
62707;SDS011;48769;51.624;5.886;2023-05-07T08:20:58;26.98;;;23.85;;
62707;SDS011;48769;51.624;5.886;2023-05-07T08:23:23;26.52;;;22.48;;
62707;SDS011;48769;51.624;5.886;2023-05-07T08:25:49;26.80;;;24.13;;
62707;SDS011;48769;51.624;5.886;2023-05-07T08:28:14;26.70;;;22.95;;
62707;SDS011;48769;51.624;5.886;2023-05-07T08:30:40;27.13;;;22.92;;
62707;SDS011;48769;51.624;5.886;2023-05-07T08:33:05;26.42;;;22.05;;
62707;SDS011;48769;51.624;5.886;2023-05-07T08:35:30;26.85;;;23.35;;
62707;SDS011;48769;51.624;5.886;2023-05-07T08:37:56;26.00;;;23.20;;
62707;SDS011;48769;51.624;5.886;2023-05-07T08:40:23;24.83;;;21.88;;
62707;SDS011;48769;51.624;5.886;2023-05-07T08:42:50;22.45;;;20.15;;
62707;SDS011;48769;51.624;5.886;2023-05-07T08:45:17;24.63;;;20.80;;
62707;SDS011;48769;51.624;5.886;2023-05-07T08:47:46;24.85;;;20.85;;
62707;SDS011;48769;51.624;5.886;2023-05-07T08:50:15;22.65;;;20.23;;
62707;SDS011;48769;51.624;5.886;2023-05-07T08:52:41;22.35;;;20.05;;
62707;SDS011;48769;51.624;5.886;2023-05-07T08:55:07;22.48;;;20.15;;
62707;SDS011;48769;51.624;5.886;2023-05-07T08:57:33;19.75;;;16.92;;
62707;SDS011;48769;51.624;5.886;2023-05-07T08:59:58;23.27;;;18.98;;
62707;SDS011;48769;51.624;5.886;2023-05-07T09:02:24;19.25;;;17.30;;
62707;SDS011;48769;51.624;5.886;2023-05-07T09:04:49;20.67;;;18.35;;
62707;SDS011;48769;51.624;5.886;2023-05-07T09:07:15;21.25;;;17.67;;
62707;SDS011;48769;51.624;5.886;2023-05-07T09:09:41;18.63;;;16.73;;
62707;SDS011;48769;51.624;5.886;2023-05-07T09:12:08;19.38;;;17.42;;
62707;SDS011;48769;51.624;5.886;2023-05-07T09:14:34;21.05;;;16.70;;
62707;SDS011;48769;51.624;5.886;2023-05-07T09:17:00;18.52;;;16.52;;
62707;SDS011;48769;51.624;5.886;2023-05-07T09:19:26;17.90;;;15.68;;
62707;SDS011;48769;51.624;5.886;2023-05-07T09:22:01;20.67;;;16.08;;
62707;SDS011;48769;51.624;5.886;2023-05-07T09:24:28;22.13;;;16.08;;
62707;SDS011;48769;51.624;5.886;2023-05-07T09:26:59;19.08;;;17.05;;
62707;SDS011;48769;51.624;5.886;2023-05-07T09:29:26;20.65;;;17.00;;
62707;SDS011;48769;51.624;5.886;2023-05-07T09:31:53;18.50;;;15.45;;
62707;SDS011;48769;51.624;5.886;2023-05-07T09:34:20;19.73;;;15.68;;
62707;SDS011;48769;51.624;5.886;2023-05-07T09:36:45;16.75;;;14.95;;
62707;SDS011;48769;51.624;5.886;2023-05-07T09:39:10;16.75;;;15.05;;
62707;SDS011;48769;51.624;5.886;2023-05-07T09:41:43;20.15;;;16.05;;
62707;SDS011;48769;51.624;5.886;2023-05-07T09:44:09;18.85;;;16.02;;
62707;SDS011;48769;51.624;5.886;2023-05-07T09:46:36;18.85;;;14.82;;
62707;SDS011;48769;51.624;5.886;2023-05-07T09:49:03;18.95;;;16.08;;
62707;SDS011;48769;51.624;5.886;2023-05-07T09:54:06;16.05;;;13.95;;
62707;SDS011;48769;51.624;5.886;2023-05-07T09:56:32;20.25;;;15.65;;
62707;SDS011;48769;51.624;5.886;2023-05-07T09:58:59;16.35;;;14.48;;
62707;SDS011;48769;51.624;5.886;2023-05-07T10:01:25;20.13;;;16.23;;
62707;SDS011;48769;51.624;5.886;2023-05-07T10:03:53;16.30;;;14.23;;
62707;SDS011;48769;51.624;5.886;2023-05-07T10:06:21;18.38;;;15.02;;
62707;SDS011;48769;51.624;5.886;2023-05-07T10:08:47;18.30;;;15.43;;
62707;SDS011;48769;51.624;5.886;2023-05-07T10:11:13;17.48;;;14.63;;
62707;SDS011;48769;51.624;5.886;2023-05-07T10:13:40;19.95;;;15.35;;
62707;SDS011;48769;51.624;5.886;2023-05-07T10:16:06;51.08;;;17.17;;
62707;SDS011;48769;51.624;5.886;2023-05-07T10:18:32;19.38;;;14.90;;
62707;SDS011;48769;51.624;5.886;2023-05-07T10:23:44;15.80;;;14.05;;
62707;SDS011;48769;51.624;5.886;2023-05-07T10:26:13;16.90;;;13.88;;
62707;SDS011;48769;51.624;5.886;2023-05-07T10:28:42;17.50;;;12.80;;
62707;SDS011;48769;51.624;5.886;2023-05-07T10:31:15;16.25;;;13.18;;
62707;SDS011;48769;51.624;5.886;2023-05-07T10:34:00;16.23;;;12.43;;
62707;SDS011;48769;51.624;5.886;2023-05-07T10:36:32;14.07;;;12.50;;
62707;SDS011;48769;51.624;5.886;2023-05-07T10:39:00;15.25;;;11.80;;
62707;SDS011;48769;51.624;5.886;2023-05-07T10:41:26;19.75;;;10.30;;
62707;SDS011;48769;51.624;5.886;2023-05-07T10:43:51;14.13;;;11.82;;
62707;SDS011;48769;51.624;5.886;2023-05-07T10:46:18;18.25;;;12.07;;
62707;SDS011;48769;51.624;5.886;2023-05-07T10:51:25;13.40;;;11.50;;
62707;SDS011;48769;51.624;5.886;2023-05-07T10:56:34;12.27;;;10.45;;
62707;SDS011;48769;51.624;5.886;2023-05-07T11:01:57;15.20;;;10.93;;
62707;SDS011;48769;51.624;5.886;2023-05-07T11:04:28;10.38;;;8.98;;
62707;SDS011;48769;51.624;5.886;2023-05-07T11:09:53;10.90;;;8.07;;
62707;SDS011;48769;51.624;5.886;2023-05-07T11:15:07;9.65;;;7.20;;
62707;SDS011;48769;51.624;5.886;2023-05-07T11:17:52;12.20;;;8.27;;
62707;SDS011;48769;51.624;5.886;2023-05-07T11:20:19;10.48;;;8.80;;
62707;SDS011;48769;51.624;5.886;2023-05-07T11:22:45;13.05;;;7.35;;
62707;SDS011;48769;51.624;5.886;2023-05-07T11:25:11;12.20;;;7.43;;
62707;SDS011;48769;51.624;5.886;2023-05-07T11:27:43;10.30;;;7.40;;
62707;SDS011;48769;51.624;5.886;2023-05-07T11:30:09;13.55;;;7.88;;
62707;SDS011;48769;51.624;5.886;2023-05-07T11:32:35;11.32;;;8.30;;
62707;SDS011;48769;51.624;5.886;2023-05-07T11:35:01;11.65;;;7.68;;
62707;SDS011;48769;51.624;5.886;2023-05-07T11:37:27;10.52;;;7.10;;
62707;SDS011;48769;51.624;5.886;2023-05-07T11:40:04;10.23;;;7.40;;
62707;SDS011;48769;51.624;5.886;2023-05-07T11:42:32;13.48;;;8.88;;
62707;SDS011;48769;51.624;5.886;2023-05-07T11:44:59;11.35;;;9.05;;
62707;SDS011;48769;51.624;5.886;2023-05-07T11:47:26;14.13;;;8.90;;
62707;SDS011;48769;51.624;5.886;2023-05-07T11:49:53;10.25;;;9.05;;
62707;SDS011;48769;51.624;5.886;2023-05-07T11:52:20;12.95;;;9.30;;
62707;SDS011;48769;51.624;5.886;2023-05-07T11:54:50;9.95;;;8.77;;
62707;SDS011;48769;51.624;5.886;2023-05-07T11:57:16;12.18;;;8.88;;
62707;SDS011;48769;51.624;5.886;2023-05-07T11:59:41;10.82;;;9.70;;
62707;SDS011;48769;51.624;5.886;2023-05-07T12:02:09;11.32;;;9.20;;
62707;SDS011;48769;51.624;5.886;2023-05-07T12:04:35;15.70;;;8.93;;
62707;SDS011;48769;51.624;5.886;2023-05-07T12:07:01;10.35;;;8.00;;
62707;SDS011;48769;51.624;5.886;2023-05-07T12:09:26;9.13;;;7.38;;
62707;SDS011;48769;51.624;5.886;2023-05-07T12:11:52;9.00;;;7.47;;
62707;SDS011;48769;51.624;5.886;2023-05-07T12:14:18;13.20;;;8.48;;
62707;SDS011;48769;51.624;5.886;2023-05-07T12:16:43;12.05;;;7.45;;
62707;SDS011;48769;51.624;5.886;2023-05-07T12:19:10;11.85;;;7.55;;
62707;SDS011;48769;51.624;5.886;2023-05-07T12:21:37;14.10;;;7.00;;
62707;SDS011;48769;51.624;5.886;2023-05-07T12:24:04;9.23;;;7.22;;
62707;SDS011;48769;51.624;5.886;2023-05-07T12:26:29;10.07;;;6.88;;
62707;SDS011;48769;51.624;5.886;2023-05-07T12:28:56;8.30;;;7.38;;
62707;SDS011;48769;51.624;5.886;2023-05-07T12:31:22;9.45;;;7.32;;
62707;SDS011;48769;51.624;5.886;2023-05-07T12:33:48;8.90;;;6.57;;
62707;SDS011;48769;51.624;5.886;2023-05-07T12:36:13;8.90;;;6.38;;
62707;SDS011;48769;51.624;5.886;2023-05-07T12:38:38;11.48;;;7.15;;
62707;SDS011;48769;51.624;5.886;2023-05-07T12:41:06;9.10;;;7.40;;
62707;SDS011;48769;51.624;5.886;2023-05-07T12:43:33;9.80;;;6.30;;
62707;SDS011;48769;51.624;5.886;2023-05-07T12:46:03;10.07;;;6.75;;
62707;SDS011;48769;51.624;5.886;2023-05-07T12:48:31;8.55;;;6.70;;
62707;SDS011;48769;51.624;5.886;2023-05-07T12:50:57;8.05;;;6.28;;
62707;SDS011;48769;51.624;5.886;2023-05-07T12:53:25;9.13;;;7.20;;
62707;SDS011;48769;51.624;5.886;2023-05-07T12:55:52;8.52;;;5.72;;
62707;SDS011;48769;51.624;5.886;2023-05-07T12:58:26;8.98;;;6.15;;
62707;SDS011;48769;51.624;5.886;2023-05-07T13:00:54;6.25;;;5.60;;
62707;SDS011;48769;51.624;5.886;2023-05-07T13:05:49;7.13;;;5.72;;
62707;SDS011;48769;51.624;5.886;2023-05-07T13:08:25;10.15;;;6.40;;
62707;SDS011;48769;51.624;5.886;2023-05-07T13:10:50;6.40;;;5.60;;
62707;SDS011;48769;51.624;5.886;2023-05-07T13:13:16;7.10;;;5.35;;
62707;SDS011;48769;51.624;5.886;2023-05-07T13:15:41;13.32;;;6.38;;
62707;SDS011;48769;51.624;5.886;2023-05-07T13:18:06;8.27;;;5.53;;
62707;SDS011;48769;51.624;5.886;2023-05-07T13:20:32;8.18;;;6.30;;
62707;SDS011;48769;51.624;5.886;2023-05-07T13:22:57;7.38;;;6.07;;
62707;SDS011;48769;51.624;5.886;2023-05-07T13:25:22;9.02;;;6.88;;
62707;SDS011;48769;51.624;5.886;2023-05-07T13:27:48;7.47;;;5.85;;
62707;SDS011;48769;51.624;5.886;2023-05-07T13:30:13;6.60;;;5.43;;
62707;SDS011;48769;51.624;5.886;2023-05-07T13:32:38;10.45;;;7.30;;
62707;SDS011;48769;51.624;5.886;2023-05-07T13:35:04;9.77;;;6.72;;
62707;SDS011;48769;51.624;5.886;2023-05-07T13:37:29;11.55;;;7.10;;
62707;SDS011;48769;51.624;5.886;2023-05-07T13:39:55;8.10;;;7.15;;
62707;SDS011;48769;51.624;5.886;2023-05-07T13:42:20;7.53;;;6.43;;
62707;SDS011;48769;51.624;5.886;2023-05-07T13:44:45;7.38;;;5.80;;
62707;SDS011;48769;51.624;5.886;2023-05-07T13:47:11;8.02;;;6.18;;
62707;SDS011;48769;51.624;5.886;2023-05-07T13:49:36;6.50;;;5.82;;
62707;SDS011;48769;51.624;5.886;2023-05-07T13:52:01;14.07;;;6.90;;
62707;SDS011;48769;51.624;5.886;2023-05-07T13:54:27;12.20;;;6.93;;
62707;SDS011;48769;51.624;5.886;2023-05-07T13:56:52;7.13;;;5.30;;
62707;SDS011;48769;51.624;5.886;2023-05-07T13:59:18;7.50;;;4.90;;
62707;SDS011;48769;51.624;5.886;2023-05-07T14:01:43;3.78;;;2.88;;
62707;SDS011;48769;51.624;5.886;2023-05-07T14:04:08;4.13;;;3.08;;
62707;SDS011;48769;51.624;5.886;2023-05-07T14:06:34;5.13;;;2.58;;
62707;SDS011;48769;51.624;5.886;2023-05-07T14:08:59;3.92;;;2.30;;
62707;SDS011;48769;51.624;5.886;2023-05-07T14:11:25;4.68;;;2.45;;
62707;SDS011;48769;51.624;5.886;2023-05-07T14:13:50;5.55;;;2.30;;
62707;SDS011;48769;51.624;5.886;2023-05-07T14:16:15;3.35;;;2.47;;
62707;SDS011;48769;51.624;5.886;2023-05-07T14:18:41;4.65;;;2.53;;
62707;SDS011;48769;51.624;5.886;2023-05-07T14:21:06;9.60;;;3.33;;
62707;SDS011;48769;51.624;5.886;2023-05-07T14:23:32;7.07;;;3.80;;
62707;SDS011;48769;51.624;5.886;2023-05-07T14:25:57;6.00;;;3.92;;
62707;SDS011;48769;51.624;5.886;2023-05-07T14:28:23;7.78;;;4.32;;
62707;SDS011;48769;51.624;5.886;2023-05-07T14:30:48;6.10;;;4.20;;
62707;SDS011;48769;51.624;5.886;2023-05-07T14:33:14;3.95;;;3.22;;
62707;SDS011;48769;51.624;5.886;2023-05-07T14:35:39;5.95;;;3.78;;
62707;SDS011;48769;51.624;5.886;2023-05-07T14:38:05;3.33;;;3.03;;
62707;SDS011;48769;51.624;5.886;2023-05-07T14:40:30;8.10;;;3.80;;